sensor_id;sensor_type;location;lat;lon;timestamp;temperature;humidity
61400;DHT22;47269;48.182;-1.946;2023-09-12T06:00:07;16.90;99.90
61400;DHT22;47269;48.182;-1.946;2023-09-12T06:02:39;16.80;99.90
61400;DHT22;47269;48.182;-1.946;2023-09-12T06:05:06;16.90;99.90
61400;DHT22;47269;48.182;-1.946;2023-09-12T06:07:32;17.00;99.90
61400;DHT22;47269;48.182;-1.946;2023-09-12T06:09:58;17.10;99.90
61400;DHT22;47269;48.182;-1.946;2023-09-12T06:12:23;16.90;99.90
61400;DHT22;47269;48.182;-1.946;2023-09-12T06:14:50;17.00;99.90
61400;DHT22;47269;48.182;-1.946;2023-09-12T06:17:16;17.00;99.90
61400;DHT22;47269;48.182;-1.946;2023-09-12T06:19:41;17.00;99.90
61400;DHT22;47269;48.182;-1.946;2023-09-12T06:22:07;17.00;99.90
61400;DHT22;47269;48.182;-1.946;2023-09-12T06:24:33;17.00;99.90
61400;DHT22;47269;48.182;-1.946;2023-09-12T06:26:58;16.90;99.90
61400;DHT22;47269;48.182;-1.946;2023-09-12T06:29:24;16.90;99.90
61400;DHT22;47269;48.182;-1.946;2023-09-12T06:31:50;16.90;99.90
61400;DHT22;47269;48.182;-1.946;2023-09-12T06:34:15;16.80;99.90
61400;DHT22;47269;48.182;-1.946;2023-09-12T06:36:41;17.00;99.90
61400;DHT22;47269;48.182;-1.946;2023-09-12T06:39:10;17.10;99.90
61400;DHT22;47269;48.182;-1.946;2023-09-12T06:41:36;17.20;99.90
61400;DHT22;47269;48.182;-1.946;2023-09-12T06:44:01;17.10;99.90
61400;DHT22;47269;48.182;-1.946;2023-09-12T06:46:29;17.30;99.90
61400;DHT22;47269;48.182;-1.946;2023-09-12T06:48:55;17.20;99.90
61400;DHT22;47269;48.182;-1.946;2023-09-12T06:51:25;17.40;99.90
61400;DHT22;47269;48.182;-1.946;2023-09-12T06:53:52;17.40;99.90
61400;DHT22;47269;48.182;-1.946;2023-09-12T06:56:17;17.40;99.90
61400;DHT22;47269;48.182;-1.946;2023-09-12T06:58:43;17.60;99.90
61400;DHT22;47269;48.182;-1.946;2023-09-12T07:01:09;17.60;99.90
61400;DHT22;47269;48.182;-1.946;2023-09-12T07:03:35;17.60;99.90
61400;DHT22;47269;48.182;-1.946;2023-09-12T07:06:01;17.80;99.90
61400;DHT22;47269;48.182;-1.946;2023-09-12T07:08:31;17.70;99.90
61400;DHT22;47269;48.182;-1.946;2023-09-12T07:10:57;17.80;99.90
61400;DHT22;47269;48.182;-1.946;2023-09-12T07:13:25;17.90;99.90
61400;DHT22;47269;48.182;-1.946;2023-09-12T07:15:51;17.90;99.90
61400;DHT22;47269;48.182;-1.946;2023-09-12T07:18:17;17.90;99.90
61400;DHT22;47269;48.182;-1.946;2023-09-12T07:20:43;18.00;99.90
61400;DHT22;47269;48.182;-1.946;2023-09-12T07:23:09;18.10;99.90
61400;DHT22;47269;48.182;-1.946;2023-09-12T07:25:38;18.10;99.90
61400;DHT22;47269;48.182;-1.946;2023-09-12T07:28:05;18.10;99.90
61400;DHT22;47269;48.182;-1.946;2023-09-12T07:30:30;18.10;99.90
61400;DHT22;47269;48.182;-1.946;2023-09-12T07:32:56;18.20;99.90
61400;DHT22;47269;48.182;-1.946;2023-09-12T07:35:22;18.20;99.90
61400;DHT22;47269;48.182;-1.946;2023-09-12T07:37:49;18.30;99.90
61400;DHT22;47269;48.182;-1.946;2023-09-12T07:40:15;18.50;99.90
61400;DHT22;47269;48.182;-1.946;2023-09-12T07:42:41;18.60;99.90
61400;DHT22;47269;48.182;-1.946;2023-09-12T07:45:07;18.50;99.90
61400;DHT22;47269;48.182;-1.946;2023-09-12T07:47:33;18.60;99.90
61400;DHT22;47269;48.182;-1.946;2023-09-12T07:49:59;18.70;99.90
61400;DHT22;47269;48.182;-1.946;2023-09-12T07:52:26;18.80;99.90
61400;DHT22;47269;48.182;-1.946;2023-09-12T07:54:52;18.80;99.90
61400;DHT22;47269;48.182;-1.946;2023-09-12T07:57:25;19.00;99.90
61400;DHT22;47269;48.182;-1.946;2023-09-12T07:59:50;19.10;99.90
61400;DHT22;47269;48.182;-1.946;2023-09-12T08:02:16;19.30;99.90
61400;DHT22;47269;48.182;-1.946;2023-09-12T08:04:42;19.40;99.90
61400;DHT22;47269;48.182;-1.946;2023-09-12T08:07:07;19.70;99.90
61400;DHT22;47269;48.182;-1.946;2023-09-12T08:09:51;19.50;99.90
61400;DHT22;47269;48.182;-1.946;2023-09-12T08:12:18;19.50;99.90
61400;DHT22;47269;48.182;-1.946;2023-09-12T08:14:44;19.60;99.90
61400;DHT22;47269;48.182;-1.946;2023-09-12T08:17:11;19.70;99.90
61400;DHT22;47269;48.182;-1.946;2023-09-12T08:19:37;19.70;99.90
61400;DHT22;47269;48.182;-1.946;2023-09-12T08:22:03;19.80;99.90
61400;DHT22;47269;48.182;-1.946;2023-09-12T08:24:29;19.80;99.90
61400;DHT22;47269;48.182;-1.946;2023-09-12T08:26:55;19.70;99.90
61400;DHT22;47269;48.182;-1.946;2023-09-12T08:29:21;19.90;99.90
61400;DHT22;47269;48.182;-1.946;2023-09-12T08:31:46;20.20;99.90
61400;DHT22;47269;48.182;-1.946;2023-09-12T08:34:13;20.00;99.90
61400;DHT22;47269;48.182;-1.946;2023-09-12T08:36:39;19.90;99.90
61400;DHT22;47269;48.182;-1.946;2023-09-12T08:39:05;20.00;99.90
61400;DHT22;47269;48.182;-1.946;2023-09-12T08:41:33;20.20;99.90
61400;DHT22;47269;48.182;-1.946;2023-09-12T08:44:00;20.00;99.90
61400;DHT22;47269;48.182;-1.946;2023-09-12T08:46:26;20.00;99.90
61400;DHT22;47269;48.182;-1.946;2023-09-12T08:48:53;20.00;99.90
61400;DHT22;47269;48.182;-1.946;2023-09-12T08:51:21;20.70;99.90
61400;DHT22;47269;48.182;-1.946;2023-09-12T08:53:51;21.70;99.90
61400;DHT22;47269;48.182;-1.946;2023-09-12T08:56:20;22.20;99.90
61400;DHT22;47269;48.182;-1.946;2023-09-12T08:58:45;21.70;99.90
61400;DHT22;47269;48.182;-1.946;2023-09-12T09:01:14;22.00;99.90
61400;DHT22;47269;48.182;-1.946;2023-09-12T09:03:42;22.80;99.90
61400;DHT22;47269;48.182;-1.946;2023-09-12T09:06:11;22.60;99.90
61400;DHT22;47269;48.182;-1.946;2023-09-12T09:08:39;23.00;99.90
61400;DHT22;47269;48.182;-1.946;2023-09-12T09:11:05;22.50;99.90
61400;DHT22;47269;48.182;-1.946;2023-09-12T09:13:33;21.80;99.90
61400;DHT22;47269;48.182;-1.946;2023-09-12T09:19:03;21.30;99.90
61400;DHT22;47269;48.182;-1.946;2023-09-12T09:21:32;21.20;99.90
61400;DHT22;47269;48.182;-1.946;2023-09-12T09:24:01;21.40;99.90
61400;DHT22;47269;48.182;-1.946;2023-09-12T09:26:51;21.80;99.90
61400;DHT22;47269;48.182;-1.946;2023-09-12T09:29:24;21.60;99.90
61400;DHT22;47269;48.182;-1.946;2023-09-12T09:31:51;22.30;99.90
61400;DHT22;47269;48.182;-1.946;2023-09-12T09:34:21;22.30;99.90
61400;DHT22;47269;48.182;-1.946;2023-09-12T09:36:55;22.20;99.90
61400;DHT22;47269;48.182;-1.946;2023-09-12T09:39:26;21.70;99.90
61400;DHT22;47269;48.182;-1.946;2023-09-12T09:41:56;22.40;99.90
61400;DHT22;47269;48.182;-1.946;2023-09-12T09:44:23;22.40;99.90
61400;DHT22;47269;48.182;-1.946;2023-09-12T09:46:55;23.20;99.90
61400;DHT22;47269;48.182;-1.946;2023-09-12T09:49:23;23.20;99.90
61400;DHT22;47269;48.182;-1.946;2023-09-12T09:51:49;22.50;99.90
61400;DHT22;47269;48.182;-1.946;2023-09-12T09:54:15;22.00;99.90
61400;DHT22;47269;48.182;-1.946;2023-09-12T09:56:47;22.20;99.90
61400;DHT22;47269;48.182;-1.946;2023-09-12T09:59:22;23.10;99.90
61400;DHT22;47269;48.182;-1.946;2023-09-12T10:01:50;23.90;99.90
61400;DHT22;47269;48.182;-1.946;2023-09-12T10:04:19;23.60;99.90
61400;DHT22;47269;48.182;-1.946;2023-09-12T10:06:46;22.80;99.90
61400;DHT22;47269;48.182;-1.946;2023-09-12T10:09:16;22.70;99.90
61400;DHT22;47269;48.182;-1.946;2023-09-12T10:11:46;22.40;99.90
61400;DHT22;47269;48.182;-1.946;2023-09-12T10:14:13;22.30;99.90
61400;DHT22;47269;48.182;-1.946;2023-09-12T10:16:48;22.40;99.90
61400;DHT22;47269;48.182;-1.946;2023-09-12T10:19:23;22.30;99.90
61400;DHT22;47269;48.182;-1.946;2023-09-12T10:22:17;22.30;99.90
61400;DHT22;47269;48.182;-1.946;2023-09-12T10:24:45;22.10;99.90
61400;DHT22;47269;48.182;-1.946;2023-09-12T10:27:12;21.80;99.90
61400;DHT22;47269;48.182;-1.946;2023-09-12T10:29:39;21.70;99.90
61400;DHT22;47269;48.182;-1.946;2023-09-12T10:32:05;21.70;99.90
61400;DHT22;47269;48.182;-1.946;2023-09-12T10:34:32;21.70;99.90
61400;DHT22;47269;48.182;-1.946;2023-09-12T10:36:59;21.70;99.90
61400;DHT22;47269;48.182;-1.946;2023-09-12T10:39:31;21.60;99.90
61400;DHT22;47269;48.182;-1.946;2023-09-12T10:41:58;21.80;99.90
61400;DHT22;47269;48.182;-1.946;2023-09-12T10:44:24;21.80;99.90
61400;DHT22;47269;48.182;-1.946;2023-09-12T10:46:51;22.00;99.90
61400;DHT22;47269;48.182;-1.946;2023-09-12T10:49:19;21.90;99.90
61400;DHT22;47269;48.182;-1.946;2023-09-12T10:51:46;21.80;99.90
61400;DHT22;47269;48.182;-1.946;2023-09-12T10:54:24;22.20;99.90
61400;DHT22;47269;48.182;-1.946;2023-09-12T10:57:09;22.60;99.90
61400;DHT22;47269;48.182;-1.946;2023-09-12T11:02:39;22.70;99.90
61400;DHT22;47269;48.182;-1.946;2023-09-12T11:05:07;22.60;99.90
61400;DHT22;47269;48.182;-1.946;2023-09-12T11:07:59;22.60;99.90
61400;DHT22;47269;48.182;-1.946;2023-09-12T11:10:26;23.00;99.90
61400;DHT22;47269;48.182;-1.946;2023-09-12T11:12:53;23.10;99.90
61400;DHT22;47269;48.182;-1.946;2023-09-12T11:15:25;23.50;99.90
61400;DHT22;47269;48.182;-1.946;2023-09-12T11:18:01;24.30;99.90
61400;DHT22;47269;48.182;-1.946;2023-09-12T11:20:49;23.50;99.90
61400;DHT22;47269;48.182;-1.946;2023-09-12T11:23:14;22.70;99.90
61400;DHT22;47269;48.182;-1.946;2023-09-12T11:25:40;22.90;99.90
61400;DHT22;47269;48.182;-1.946;2023-09-12T11:28:06;23.40;99.90
61400;DHT22;47269;48.182;-1.946;2023-09-12T11:30:32;24.10;99.90
61400;DHT22;47269;48.182;-1.946;2023-09-12T11:32:59;23.50;99.90
61400;DHT22;47269;48.182;-1.946;2023-09-12T11:35:27;23.50;99.90
61400;DHT22;47269;48.182;-1.946;2023-09-12T11:37:58;23.50;99.90
61400;DHT22;47269;48.182;-1.946;2023-09-12T11:40:46;23.90;99.90
61400;DHT22;47269;48.182;-1.946;2023-09-12T11:43:21;23.50;99.90
61400;DHT22;47269;48.182;-1.946;2023-09-12T11:45:47;23.00;99.90
61400;DHT22;47269;48.182;-1.946;2023-09-12T11:48:13;23.60;99.90
61400;DHT22;47269;48.182;-1.946;2023-09-12T11:50:38;25.00;99.90
61400;DHT22;47269;48.182;-1.946;2023-09-12T11:53:08;26.80;99.90
61400;DHT22;47269;48.182;-1.946;2023-09-12T11:55:45;29.10;99.90
61400;DHT22;47269;48.182;-1.946;2023-09-12T11:58:13;30.90;99.90
61400;DHT22;47269;48.182;-1.946;2023-09-12T12:00:49;28.60;99.90
61400;DHT22;47269;48.182;-1.946;2023-09-12T12:03:16;30.80;99.90
61400;DHT22;47269;48.182;-1.946;2023-09-12T12:05:42;29.90;99.90
61400;DHT22;47269;48.182;-1.946;2023-09-12T12:08:10;31.60;99.90
61400;DHT22;47269;48.182;-1.946;2023-09-12T12:10:36;32.00;99.90
61400;DHT22;47269;48.182;-1.946;2023-09-12T12:13:05;28.30;99.90
61400;DHT22;47269;48.182;-1.946;2023-09-12T12:15:31;26.30;99.90
61400;DHT22;47269;48.182;-1.946;2023-09-12T12:17:58;25.00;99.90
61400;DHT22;47269;48.182;-1.946;2023-09-12T12:20:24;24.90;99.90
61400;DHT22;47269;48.182;-1.946;2023-09-12T12:22:50;28.90;99.90
61400;DHT22;47269;48.182;-1.946;2023-09-12T12:25:18;30.10;99.90
61400;DHT22;47269;48.182;-1.946;2023-09-12T12:27:44;31.00;99.90
61400;DHT22;47269;48.182;-1.946;2023-09-12T12:30:12;27.10;99.90
61400;DHT22;47269;48.182;-1.946;2023-09-12T12:32:42;25.00;99.90
61400;DHT22;47269;48.182;-1.946;2023-09-12T12:35:09;24.80;99.90
61400;DHT22;47269;48.182;-1.946;2023-09-12T12:37:36;27.30;99.90
61400;DHT22;47269;48.182;-1.946;2023-09-12T12:40:02;25.90;99.90
61400;DHT22;47269;48.182;-1.946;2023-09-12T12:42:38;25.40;99.90
61400;DHT22;47269;48.182;-1.946;2023-09-12T12:45:11;26.20;99.90
61400;DHT22;47269;48.182;-1.946;2023-09-12T12:47:38;28.20;99.90
61400;DHT22;47269;48.182;-1.946;2023-09-12T12:50:25;25.90;99.90
61400;DHT22;47269;48.182;-1.946;2023-09-12T12:52:51;26.80;99.90
61400;DHT22;47269;48.182;-1.946;2023-09-12T12:55:17;26.90;99.90
61400;DHT22;47269;48.182;-1.946;2023-09-12T12:57:45;26.30;99.90
61400;DHT22;47269;48.182;-1.946;2023-09-12T13:00:14;27.70;99.90
61400;DHT22;47269;48.182;-1.946;2023-09-12T13:02:41;28.60;99.90
61400;DHT22;47269;48.182;-1.946;2023-09-12T13:05:20;29.30;99.90
61400;DHT22;47269;48.182;-1.946;2023-09-12T13:07:46;30.60;99.90
61400;DHT22;47269;48.182;-1.946;2023-09-12T13:10:12;30.30;99.90
61400;DHT22;47269;48.182;-1.946;2023-09-12T13:12:37;30.50;99.90
61400;DHT22;47269;48.182;-1.946;2023-09-12T13:15:04;31.80;99.90
61400;DHT22;47269;48.182;-1.946;2023-09-12T13:17:30;29.90;99.90
61400;DHT22;47269;48.182;-1.946;2023-09-12T13:19:56;32.10;99.90
61400;DHT22;47269;48.182;-1.946;2023-09-12T13:22:21;31.70;99.90
61400;DHT22;47269;48.182;-1.946;2023-09-12T13:24:47;27.80;99.90
61400;DHT22;47269;48.182;-1.946;2023-09-12T13:27:13;26.20;99.90
61400;DHT22;47269;48.182;-1.946;2023-09-12T13:29:39;30.10;99.90
61400;DHT22;47269;48.182;-1.946;2023-09-12T13:32:05;25.40;99.90
61400;DHT22;47269;48.182;-1.946;2023-09-12T13:34:31;25.00;99.90
61400;DHT22;47269;48.182;-1.946;2023-09-12T13:36:56;23.50;99.90
61400;DHT22;47269;48.182;-1.946;2023-09-12T13:39:24;23.60;99.90
61400;DHT22;47269;48.182;-1.946;2023-09-12T13:41:49;24.00;99.90
61400;DHT22;47269;48.182;-1.946;2023-09-12T13:44:16;23.90;99.90
61400;DHT22;47269;48.182;-1.946;2023-09-12T13:46:42;24.70;99.90
61400;DHT22;47269;48.182;-1.946;2023-09-12T13:49:10;25.00;99.90
61400;DHT22;47269;48.182;-1.946;2023-09-12T13:51:35;24.50;99.90
61400;DHT22;47269;48.182;-1.946;2023-09-12T13:54:01;24.60;99.90
61400;DHT22;47269;48.182;-1.946;2023-09-12T13:56:28;24.70;99.90
61400;DHT22;47269;48.182;-1.946;2023-09-12T13:58:54;23.80;99.90
61400;DHT22;47269;48.182;-1.946;2023-09-12T14:01:20;23.60;99.90
61400;DHT22;47269;48.182;-1.946;2023-09-12T14:03:45;23.80;99.90
61400;DHT22;47269;48.182;-1.946;2023-09-12T14:06:11;24.10;99.90
61400;DHT22;47269;48.182;-1.946;2023-09-12T14:08:37;24.50;99.90
61400;DHT22;47269;48.182;-1.946;2023-09-12T14:11:03;25.30;99.90
61400;DHT22;47269;48.182;-1.946;2023-09-12T14:13:28;24.70;99.90
61400;DHT22;47269;48.182;-1.946;2023-09-12T14:15:54;24.60;99.90
61400;DHT22;47269;48.182;-1.946;2023-09-12T14:18:20;24.60;99.90
61400;DHT22;47269;48.182;-1.946;2023-09-12T14:20:46;24.80;99.90
61400;DHT22;47269;48.182;-1.946;2023-09-12T14:23:12;24.90;99.90
61400;DHT22;47269;48.182;-1.946;2023-09-12T14:25:38;23.90;99.90
61400;DHT22;47269;48.182;-1.946;2023-09-12T14:28:05;23.70;99.90
61400;DHT22;47269;48.182;-1.946;2023-09-12T14:30:31;23.70;99.90
61400;DHT22;47269;48.182;-1.946;2023-09-12T14:33:02;23.60;99.90
61400;DHT22;47269;48.182;-1.946;2023-09-12T14:35:28;23.60;99.90
61400;DHT22;47269;48.182;-1.946;2023-09-12T14:37:54;23.70;99.90
61400;DHT22;47269;48.182;-1.946;2023-09-12T14:40:19;23.70;99.90
61400;DHT22;47269;48.182;-1.946;2023-09-12T14:42:45;23.90;99.90
61400;DHT22;47269;48.182;-1.946;2023-09-12T14:45:11;24.00;99.90
61400;DHT22;47269;48.182;-1.946;2023-09-12T14:47:36;23.80;99.90
61400;DHT22;47269;48.182;-1.946;2023-09-12T14:50:03;23.70;99.90
61400;DHT22;47269;48.182;-1.946;2023-09-12T14:52:28;23.40;99.90
61400;DHT22;47269;48.182;-1.946;2023-09-12T14:54:55;23.30;99.90
61400;DHT22;47269;48.182;-1.946;2023-09-12T14:57:23;22.90;99.90
61400;DHT22;47269;48.182;-1.946;2023-09-12T14:59:52;22.90;99.90
61400;DHT22;47269;48.182;-1.946;2023-09-12T15:02:18;23.00;99.90
61400;DHT22;47269;48.182;-1.946;2023-09-12T15:04:43;22.80;99.90
61400;DHT22;47269;48.182;-1.946;2023-09-12T15:07:09;22.90;99.90
61400;DHT22;47269;48.182;-1.946;2023-09-12T15:09:34;23.00;99.90
61400;DHT22;47269;48.182;-1.946;2023-09-12T15:12:00;22.80;99.90
61400;DHT22;47269;48.182;-1.946;2023-09-12T15:14:26;22.90;99.90
61400;DHT22;47269;48.182;-1.946;2023-09-12T15:16:51;23.00;99.90
61400;DHT22;47269;48.182;-1.946;2023-09-12T15:19:17;22.80;99.90
61400;DHT22;47269;48.182;-1.946;2023-09-12T15:21:43;22.40;99.90
61400;DHT22;47269;48.182;-1.946;2023-09-12T15:24:08;22.50;99.90
61400;DHT22;47269;48.182;-1.946;2023-09-12T15:26:34;22.30;99.90
61400;DHT22;47269;48.182;-1.946;2023-09-12T15:29:00;22.40;99.90
61400;DHT22;47269;48.182;-1.946;2023-09-12T15:31:27;22.30;99.90
61400;DHT22;47269;48.182;-1.946;2023-09-12T15:33:53;22.30;99.90
61400;DHT22;47269;48.182;-1.946;2023-09-12T15:36:20;22.50;99.90
61400;DHT22;47269;48.182;-1.946;2023-09-12T15:38:45;22.40;99.90
61400;DHT22;47269;48.182;-1.946;2023-09-12T15:41:11;22.40;99.90
61400;DHT22;47269;48.182;-1.946;2023-09-12T15:43:38;22.50;99.90
61400;DHT22;47269;48.182;-1.946;2023-09-12T15:46:04;22.60;99.90
61400;DHT22;47269;48.182;-1.946;2023-09-12T15:48:30;22.60;99.90
61400;DHT22;47269;48.182;-1.946;2023-09-12T15:50:56;22.50;99.90
61400;DHT22;47269;48.182;-1.946;2023-09-12T15:53:22;22.50;99.90
61400;DHT22;47269;48.182;-1.946;2023-09-12T15:55:47;22.50;99.90
61400;DHT22;47269;48.182;-1.946;2023-09-12T15:58:14;22.60;99.90
61400;DHT22;47269;48.182;-1.946;2023-09-12T16:00:41;22.50;99.90
61400;DHT22;47269;48.182;-1.946;2023-09-12T16:03:07;22.40;99.90
61400;DHT22;47269;48.182;-1.946;2023-09-12T16:05:32;22.40;99.90
61400;DHT22;47269;48.182;-1.946;2023-09-12T16:07:58;22.50;99.90
61400;DHT22;47269;48.182;-1.946;2023-09-12T16:10:24;22.40;99.90
61400;DHT22;47269;48.182;-1.946;2023-09-12T16:12:50;22.30;99.90
61400;DHT22;47269;48.182;-1.946;2023-09-12T16:15:15;22.60;99.90
61400;DHT22;47269;48.182;-1.946;2023-09-12T16:17:41;22.50;99.90
61400;DHT22;47269;48.182;-1.946;2023-09-12T16:20:10;22.60;99.90
61400;DHT22;47269;48.182;-1.946;2023-09-12T16:22:38;22.50;99.90
61400;DHT22;47269;48.182;-1.946;2023-09-12T16:25:04;22.30;99.90
61400;DHT22;47269;48.182;-1.946;2023-09-12T16:27:30;22.50;99.90
61400;DHT22;47269;48.182;-1.946;2023-09-12T16:29:56;22.50;99.90
61400;DHT22;47269;48.182;-1.946;2023-09-12T16:32:25;22.40;99.90
61400;DHT22;47269;48.182;-1.946;2023-09-12T16:34:51;22.20;99.90
61400;DHT22;47269;48.182;-1.946;2023-09-12T16:37:16;22.00;99.90
61400;DHT22;47269;48.182;-1.946;2023-09-12T16:39:42;21.70;99.90
61400;DHT22;47269;48.182;-1.946;2023-09-12T16:42:08;21.60;99.90
61400;DHT22;47269;48.182;-1.946;2023-09-12T16:44:34;21.50;99.90
61400;DHT22;47269;48.182;-1.946;2023-09-12T16:47:00;21.40;99.90
61400;DHT22;47269;48.182;-1.946;2023-09-12T16:49:25;21.50;99.90
61400;DHT22;47269;48.182;-1.946;2023-09-12T16:51:51;21.50;99.90
61400;DHT22;47269;48.182;-1.946;2023-09-12T16:54:17;21.40;99.90
61400;DHT22;47269;48.182;-1.946;2023-09-12T16:56:42;21.50;99.90
61400;DHT22;47269;48.182;-1.946;2023-09-12T16:59:08;21.50;99.90
61400;DHT22;47269;48.182;-1.946;2023-09-12T17:01:34;21.40;99.90
61400;DHT22;47269;48.182;-1.946;2023-09-12T17:04:01;21.30;99.90
61400;DHT22;47269;48.182;-1.946;2023-09-12T17:06:27;21.20;99.90
61400;DHT22;47269;48.182;-1.946;2023-09-12T17:08:55;21.30;99.90
61400;DHT22;47269;48.182;-1.946;2023-09-12T17:11:22;21.40;99.90
61400;DHT22;47269;48.182;-1.946;2023-09-12T17:13:48;21.50;99.90
61400;DHT22;47269;48.182;-1.946;2023-09-12T17:16:14;21.50;99.90
61400;DHT22;47269;48.182;-1.946;2023-09-12T17:18:40;21.60;99.90
61400;DHT22;47269;48.182;-1.946;2023-09-12T17:21:06;21.60;99.90
61400;DHT22;47269;48.182;-1.946;2023-09-12T17:23:31;21.40;99.90
61400;DHT22;47269;48.182;-1.946;2023-09-12T17:25:57;21.50;99.90
61400;DHT22;47269;48.182;-1.946;2023-09-12T17:28:23;21.40;99.90
61400;DHT22;47269;48.182;-1.946;2023-09-12T17:30:48;21.40;99.90
61400;DHT22;47269;48.182;-1.946;2023-09-12T17:33:16;21.20;99.90
61400;DHT22;47269;48.182;-1.946;2023-09-12T17:35:41;21.10;99.90
61400;DHT22;47269;48.182;-1.946;2023-09-12T17:38:07;21.00;99.90
61400;DHT22;47269;48.182;-1.946;2023-09-12T17:40:33;20.90;99.90
61400;DHT22;47269;48.182;-1.946;2023-09-12T17:42:59;21.00;99.90
61400;DHT22;47269;48.182;-1.946;2023-09-12T17:45:25;21.00;99.90
61400;DHT22;47269;48.182;-1.946;2023-09-12T17:47:51;21.00;99.90
61400;DHT22;47269;48.182;-1.946;2023-09-12T17:50:18;21.00;99.90
61400;DHT22;47269;48.182;-1.946;2023-09-12T17:52:44;21.20;99.90
61400;DHT22;47269;48.182;-1.946;2023-09-12T17:55:09;21.10;99.90
61400;DHT22;47269;48.182;-1.946;2023-09-12T17:57:36;21.10;99.90
61400;DHT22;47269;48.182;-1.946;2023-09-12T18:02:27;21.10;99.90
61400;DHT22;47269;48.182;-1.946;2023-09-12T18:04:53;21.10;99.90
61400;DHT22;47269;48.182;-1.946;2023-09-12T18:07:21;20.90;99.90
61400;DHT22;47269;48.182;-1.946;2023-09-12T18:09:47;21.00;99.90
61400;DHT22;47269;48.182;-1.946;2023-09-12T18:12:15;21.10;99.90
61400;DHT22;47269;48.182;-1.946;2023-09-12T18:14:41;20.80;99.90
61400;DHT22;47269;48.182;-1.946;2023-09-12T18:17:06;20.60;99.90
61400;DHT22;47269;48.182;-1.946;2023-09-12T18:19:34;20.70;99.90
61400;DHT22;47269;48.182;-1.946;2023-09-12T18:21:59;20.90;99.90
61400;DHT22;47269;48.182;-1.946;2023-09-12T18:24:25;20.30;99.90
61400;DHT22;47269;48.182;-1.946;2023-09-12T18:26:52;20.60;99.90
61400;DHT22;47269;48.182;-1.946;2023-09-12T18:29:18;20.40;99.90
61400;DHT22;47269;48.182;-1.946;2023-09-12T18:31:44;20.40;99.90
61400;DHT22;47269;48.182;-1.946;2023-09-12T18:34:10;20.50;99.90
61400;DHT22;47269;48.182;-1.946;2023-09-12T18:36:37;20.40;99.90
61400;DHT22;47269;48.182;-1.946;2023-09-12T18:39:02;20.30;99.90
61400;DHT22;47269;48.182;-1.946;2023-09-12T18:41:32;20.50;99.90
61400;DHT22;47269;48.182;-1.946;2023-09-12T18:43:58;20.30;99.90
61400;DHT22;47269;48.182;-1.946;2023-09-12T18:46:23;20.10;99.90
61400;DHT22;47269;48.182;-1.946;2023-09-12T18:48:49;20.10;99.90
61400;DHT22;47269;48.182;-1.946;2023-09-12T18:51:15;20.30;99.90
61400;DHT22;47269;48.182;-1.946;2023-09-12T18:53:40;20.00;99.90
61400;DHT22;47269;48.182;-1.946;2023-09-12T18:56:06;19.80;99.90
61400;DHT22;47269;48.182;-1.946;2023-09-12T18:58:32;19.90;99.90
61400;DHT22;47269;48.182;-1.946;2023-09-12T19:00:58;20.00;99.90
61400;DHT22;47269;48.182;-1.946;2023-09-12T19:03:25;19.80;99.90
61400;DHT22;47269;48.182;-1.946;2023-09-12T19:05:50;20.20;99.90
61400;DHT22;47269;48.182;-1.946;2023-09-12T19:08:16;19.70;99.90
61400;DHT22;47269;48.182;-1.946;2023-09-12T19:10:42;19.50;99.90
61400;DHT22;47269;48.182;-1.946;2023-09-12T19:13:07;19.80;99.90
61400;DHT22;47269;48.182;-1.946;2023-09-12T19:15:34;19.70;99.90
61400;DHT22;47269;48.182;-1.946;2023-09-12T19:18:03;19.70;99.90
61400;DHT22;47269;48.182;-1.946;2023-09-12T19:20:32;19.50;99.90
61400;DHT22;47269;48.182;-1.946;2023-09-12T19:22:58;19.40;99.90
61400;DHT22;47269;48.182;-1.946;2023-09-12T19:25:24;19.50;99.90
61400;DHT22;47269;48.182;-1.946;2023-09-12T19:27:50;19.40;99.90
61400;DHT22;47269;48.182;-1.946;2023-09-12T19:30:15;19.50;99.90
61400;DHT22;47269;48.182;-1.946;2023-09-12T19:32:41;19.60;99.90
61400;DHT22;47269;48.182;-1.946;2023-09-12T19:35:08;19.70;99.90
61400;DHT22;47269;48.182;-1.946;2023-09-12T19:37:35;19.40;99.90
61400;DHT22;47269;48.182;-1.946;2023-09-12T19:40:02;19.90;99.90
61400;DHT22;47269;48.182;-1.946;2023-09-12T19:42:29;19.60;99.90
61400;DHT22;47269;48.182;-1.946;2023-09-12T19:44:55;19.20;99.90
61400;DHT22;47269;48.182;-1.946;2023-09-12T19:47:21;19.70;99.90
61400;DHT22;47269;48.182;-1.946;2023-09-12T19:49:47;19.60;99.90
61400;DHT22;47269;48.182;-1.946;2023-09-12T19:52:13;19.80;99.90
61400;DHT22;47269;48.182;-1.946;2023-09-12T19:54:40;19.50;99.90
61400;DHT22;47269;48.182;-1.946;2023-09-12T19:57:06;19.70;99.90
61400;DHT22;47269;48.182;-1.946;2023-09-12T19:59:32;19.50;99.90
61400;DHT22;47269;48.182;-1.946;2023-09-12T20:01:59;19.20;99.90
61400;DHT22;47269;48.182;-1.946;2023-09-12T20:04:25;19.20;99.90
61400;DHT22;47269;48.182;-1.946;2023-09-12T20:06:55;18.90;99.90
61400;DHT22;47269;48.182;-1.946;2023-09-12T20:09:22;19.10;99.90
61400;DHT22;47269;48.182;-1.946;2023-09-12T20:11:48;18.90;99.90
61400;DHT22;47269;48.182;-1.946;2023-09-12T20:14:14;18.80;99.90
61400;DHT22;47269;48.182;-1.946;2023-09-12T20:16:41;19.00;99.90
61400;DHT22;47269;48.182;-1.946;2023-09-12T20:19:08;18.60;99.90
61400;DHT22;47269;48.182;-1.946;2023-09-12T20:21:40;18.40;99.90
61400;DHT22;47269;48.182;-1.946;2023-09-12T20:24:07;18.40;99.90
61400;DHT22;47269;48.182;-1.946;2023-09-12T20:26:33;18.40;99.90
61400;DHT22;47269;48.182;-1.946;2023-09-12T20:28:59;18.20;99.90
61400;DHT22;47269;48.182;-1.946;2023-09-12T20:31:25;18.10;99.90
61400;DHT22;47269;48.182;-1.946;2023-09-12T20:33:52;18.30;99.90
61400;DHT22;47269;48.182;-1.946;2023-09-12T20:36:20;18.30;99.90
61400;DHT22;47269;48.182;-1.946;2023-09-12T20:38:50;18.30;99.90
61400;DHT22;47269;48.182;-1.946;2023-09-12T20:41:16;18.20;99.90
61400;DHT22;47269;48.182;-1.946;2023-09-12T20:43:42;18.20;99.90
61400;DHT22;47269;48.182;-1.946;2023-09-12T20:46:08;18.10;99.90
61400;DHT22;47269;48.182;-1.946;2023-09-12T20:48:36;18.10;99.90
61400;DHT22;47269;48.182;-1.946;2023-09-12T20:51:09;18.00;99.90
61400;DHT22;47269;48.182;-1.946;2023-09-12T20:53:35;17.90;99.90
61400;DHT22;47269;48.182;-1.946;2023-09-12T20:56:02;18.00;99.90
61400;DHT22;47269;48.182;-1.946;2023-09-12T20:58:28;17.90;99.90
61400;DHT22;47269;48.182;-1.946;2023-09-12T21:00:54;17.90;99.90
61400;DHT22;47269;48.182;-1.946;2023-09-12T21:03:21;17.80;99.90
61400;DHT22;47269;48.182;-1.946;2023-09-12T21:05:47;17.70;99.90
61400;DHT22;47269;48.182;-1.946;2023-09-12T21:08:13;17.60;99.90
61400;DHT22;47269;48.182;-1.946;2023-09-12T21:10:39;17.60;99.90
61400;DHT22;47269;48.182;-1.946;2023-09-12T21:13:04;17.60;99.90
61400;DHT22;47269;48.182;-1.946;2023-09-12T21:15:30;17.40;99.90
61400;DHT22;47269;48.182;-1.946;2023-09-12T21:17:57;17.40;99.90
61400;DHT22;47269;48.182;-1.946;2023-09-12T21:20:22;17.50;99.90
61400;DHT22;47269;48.182;-1.946;2023-09-12T21:22:48;17.40;99.90